Time;durP1;ratioP1;P1;durP2;ratioP2;P2;SDS_P1;SDS_P2;PMS_P1;PMS_P2;Temp;Humidity;BMP_temperature;BMP_pressure;BME280_temperature;BME280_humidity;BME280_pressure;Samples;Min_cycle;Max_cycle;Signal;HPM_P1;HPM_P2
2023/09/17 00:01:43;;;;;;;;;;;;;;;19.14;68.24219;101592.9;;;;-82
2023/09/17 00:05:36;;;;;;;14.4;9.5;;;;;;;;;;;;;-83
2023/09/17 00:06:37;;;;;;;;;;;;;;;19.12;68.73633;101587.6;;;;-83
2023/09/17 00:11:35;;;;;;;;;;;;;;;19.11;69.99023;101583.6;;;;-82
2023/09/17 00:16:35;;;;;;;;;;;;;;;19.13;70.37988;101579.9;;;;-82
2023/09/17 00:21:39;;;;;;;;;;;;;;;19.11;70.04688;101569.3;;;;-84
2023/09/17 00:26:39;;;;;;;;;;;;;;;19.05;69.65527;101572.7;;;;-83
2023/09/17 00:31:37;;;;;;;;;;;;;;;19.04;69.77832;101578.3;;;;-85
2023/09/17 00:35:39;;;;;;;13.6;10;;;;;;;;;;;;;-83
2023/09/17 00:36:38;;;;;;;;;;;;;;;19.04;69.85742;101578.7;;;;-83
2023/09/17 00:41:43;;;;;;;;;;;;;;;19.03;70.23926;101580;;;;-81
2023/09/17 00:46:39;;;;;;;;;;;;;;;19.06;70.32324;101576.9;;;;-83
2023/09/17 00:51:44;;;;;;;;;;;;;;;19.03;71.00879;101574.3;;;;-83
2023/09/17 00:56:35;;;;;;;;;;;;;;;18.99;70.77637;101565.5;;;;-83
2023/09/17 01:01:47;;;;;;;;;;;;;;;18.99;71.4541;101567.7;;;;-83
2023/09/17 01:05:44;;;;;;;16;10.8;;;;;;;;;;;;;-83
2023/09/17 01:06:36;;;;;;;;;;;;;;;18.99;70.42578;101567.9;;;;-82
2023/09/17 01:11:44;;;;;;;;;;;;;;;18.97;69.69922;101561.7;;;;-84
2023/09/17 01:16:45;;;;;;;;;;;;;;;18.94;71.36914;101555.5;;;;-83
2023/09/17 01:21:53;;;;;;;;;;;;;;;18.91;72.92188;101551.2;;;;-84
2023/09/17 01:26:38;;;;;;;;;;;;;;;18.85;73.24219;101550.2;;;;-82
2023/09/17 01:31:40;;;;;;;;;;;;;;;18.84;74.04297;101544.6;;;;-84
2023/09/17 01:35:39;;;;;;;15.6;11.6;;;;;;;;;;;;;-83
2023/09/17 01:36:36;;;;;;;;;;;;;;;18.83;74.14258;101544.3;;;;-84
2023/09/17 01:41:33;;;;;;;;;;;;;;;18.81;74.25098;101537.6;;;;-82
2023/09/17 01:46:49;;;;;;;;;;;;;;;18.81;74.56738;101537.6;;;;-84
2023/09/17 01:51:58;;;;;;;;;;;;;;;18.77;74.77539;101531.2;;;;-83
2023/09/17 01:56:43;;;;;;;;;;;;;;;18.71;75.19434;101520.2;;;;-82
2023/09/17 02:01:38;;;;;;;;;;;;;;;18.72;74.29297;101523.9;;;;-84
2023/09/17 02:05:46;;;;;;;18.7;12.3;;;;;;;;;;;;;-83
2023/09/17 02:06:36;;;;;;;;;;;;;;;18.67;74.00293;101519.8;;;;-84
2023/09/17 02:11:39;;;;;;;;;;;;;;;18.64;74.12109;101510.7;;;;-84
2023/09/17 02:16:37;;;;;;;;;;;;;;;18.62;73.79199;101506.5;;;;-84
2023/09/17 02:21:34;;;;;;;;;;;;;;;18.6;73.12207;101496.8;;;;-82
2023/09/17 02:26:37;;;;;;;;;;;;;;;18.58;73.94238;101485.3;;;;-83
2023/09/17 02:31:34;;;;;;;;;;;;;;;18.55;75.25684;101494.1;;;;-84
2023/09/17 02:35:44;;;;;;;14.8;11.1;;;;;;;;;;;;;-84
2023/09/17 02:36:38;;;;;;;;;;;;;;;18.52;75.20703;101493.8;;;;-83
2023/09/17 02:41:35;;;;;;;;;;;;;;;18.56;74.61523;101494.9;;;;-83
2023/09/17 02:46:35;;;;;;;;;;;;;;;18.54;76.04688;101499.8;;;;-82
2023/09/17 02:51:34;;;;;;;;;;;;;;;18.55;76.24023;101494.5;;;;-84
2023/09/17 02:56:37;;;;;;;;;;;;;;;18.52;75.79395;101503.3;;;;-84
2023/09/17 03:01:35;;;;;;;;;;;;;;;18.52;75.70508;101510.4;;;;-81
2023/09/17 03:05:48;;;;;;;18.7;13.4;;;;;;;;;;;;;-84
2023/09/17 03:06:45;;;;;;;;;;;;;;;18.5;75.08008;101502.1;;;;-84
2023/09/17 03:11:39;;;;;;;;;;;;;;;18.48;74.97559;101496.3;;;;-84
2023/09/17 03:16:45;;;;;;;;;;;;;;;18.49;75.08008;101509.5;;;;-84
2023/09/17 03:21:40;;;;;;;;;;;;;;;18.5;74.75391;101501.5;;;;-85
2023/09/17 03:26:51;;;;;;;;;;;;;;;18.54;74.77148;101494.1;;;;-83
2023/09/17 03:31:36;;;;;;;;;;;;;;;18.52;75.83887;101497.1;;;;-81
2023/09/17 03:35:58;;;;;;;16.2;11.9;;;;;;;;;;;;;-81
2023/09/17 03:36:37;;;;;;;;;;;;;;;18.46;76.51758;101497.5;;;;-82
2023/09/17 03:41:39;;;;;;;;;;;;;;;18.47;77.26367;101499.6;;;;-86
2023/09/17 03:46:35;;;;;;;;;;;;;;;18.49;76.89453;101503.5;;;;-84
2023/09/17 03:51:37;;;;;;;;;;;;;;;18.44;77.22559;101507.6;;;;-84
2023/09/17 03:56:39;;;;;;;;;;;;;;;18.4;78.19824;101503.5;;;;-84
2023/09/17 04:01:39;;;;;;;;;;;;;;;18.44;78.59863;101504;;;;-84
2023/09/17 04:05:53;;;;;;;16.2;10.1;;;;;;;;;;;;;-82
2023/09/17 04:06:38;;;;;;;;;;;;;;;18.43;77.46973;101502.5;;;;-84
2023/09/17 04:11:36;;;;;;;;;;;;;;;18.44;80.64063;101513.8;;;;-84
2023/09/17 04:16:39;;;;;;;;;;;;;;;18.37;82.79102;101503.6;;;;-85
2023/09/17 04:21:37;;;;;;;;;;;;;;;18.24;84.35156;101499.1;;;;-85
2023/09/17 04:26:36;;;;;;;;;;;;;;;18.21;86.29102;101491;;;;-83
2023/09/17 04:31:35;;;;;;;;;;;;;;;18.14;88.4668;101491.2;;;;-83
2023/09/17 04:36:03;;;;;;;15.3;10.7;;;;;;;;;;;;;-84
2023/09/17 04:36:35;;;;;;;;;;;;;;;18.12;87.99121;101488.3;;;;-83
2023/09/17 04:41:35;;;;;;;;;;;;;;;18.06;90.02148;101478.3;;;;-82
2023/09/17 04:46:37;;;;;;;;;;;;;;;18.08;89.20801;101484.5;;;;-83
2023/09/17 04:51:36;;;;;;;;;;;;;;;18.09;88.80566;101480.2;;;;-83
2023/09/17 04:56:35;;;;;;;;;;;;;;;18.09;88.10742;101471.6;;;;-82
2023/09/17 05:01:38;;;;;;;;;;;;;;;18.09;91.33105;101470.9;;;;-84
2023/09/17 05:06:01;;;;;;;23.4;14.7;;;;;;;;;;;;;-83
2023/09/17 05:06:43;;;;;;;;;;;;;;;18.09;90.26465;101472.4;;;;-84
2023/09/17 05:11:38;;;;;;;;;;;;;;;18.1;90.86328;101471.2;;;;-84
2023/09/17 05:16:37;;;;;;;;;;;;;;;18.11;92.60449;101475.8;;;;-83
2023/09/17 05:21:41;;;;;;;;;;;;;;;17.98;89.49023;101474.6;;;;-82
2023/09/17 05:26:37;;;;;;;;;;;;;;;17.89;88.82129;101472;;;;-84
2023/09/17 05:31:40;;;;;;;;;;;;;;;17.82;89.38086;101477.8;;;;-84
2023/09/17 05:35:59;;;;;;;18.1;12.3;;;;;;;;;;;;;-82
2023/09/17 05:36:35;;;;;;;;;;;;;;;17.8;89.51172;101470.8;;;;-81
2023/09/17 05:41:37;;;;;;;;;;;;;;;17.82;90.32129;101474.9;;;;-82
2023/09/17 05:46:41;;;;;;;;;;;;;;;17.89;91.74902;101475.7;;;;-83
2023/09/17 05:51:39;;;;;;;;;;;;;;;17.92;95.58984;101475.4;;;;-85
2023/09/17 05:56:35;;;;;;;;;;;;;;;17.99;94.96289;101474.7;;;;-84
2023/09/17 06:01:43;;;;;;;;;;;;;;;18.05;96.04297;101477.1;;;;-83
2023/09/17 06:05:59;;;;;;;25.6;17.6;;;;;;;;;;;;;-84
2023/09/17 06:06:36;;;;;;;;;;;;;;;18.06;97.06445;101477.8;;;;-82
2023/09/17 06:11:40;;;;;;;;;;;;;;;18.09;96.8457;101476.4;;;;-84
2023/09/17 06:16:34;;;;;;;;;;;;;;;18.13;94.41113;101471.2;;;;-83
2023/09/17 06:21:34;;;;;;;;;;;;;;;18.18;92.45996;101473.6;;;;-84
2023/09/17 06:26:34;;;;;;;;;;;;;;;18.22;93.69043;101468.8;;;;-84
2023/09/17 06:52:27;;;;;;;;;;;;;;;18.27;92.69043;101454.4;;;;-81
2023/09/17 06:57:30;;;;;;;;;;;;;;;18.28;91.53809;101460.6;;;;-80
2023/09/17 07:02:34;;;;;;;;;;;;;;;18.28;92.7168;101456.6;;;;-82
2023/09/17 07:06:10;;;;;;;21.4;14.3;;;;;;;;;;;;;-82
2023/09/17 07:07:29;;;;;;;;;;;;;;;18.28;93.38965;101469.5;;;;-81
2023/09/17 07:12:35;;;;;;;;;;;;;;;18.2;92.79102;101465.3;;;;-83
2023/09/17 07:17:25;;;;;;;;;;;;;;;18.18;93.05469;101461.7;;;;-82
2023/09/17 07:22:25;;;;;;;;;;;;;;;18.12;94.12891;101462.8;;;;-82
2023/09/17 07:27:39;;;;;;;;;;;;;;;18.03;96.58594;101464.9;;;;-82
2023/09/17 07:36:23;;;;;;;22;14.4;;;;;;;;;;;;;-83
2023/09/17 07:37:22;;;;;;;;;;;;;;;17.81;93.82813;101474.3;;;;-81
2023/09/17 07:42:20;;;;;;;;;;;;;;;17.66;97.15625;101468.7;;;;-82
2023/09/17 07:47:25;;;;;;;;;;;;;;;17.45;98.70703;101462.9;;;;-82
2023/09/17 07:52:21;;;;;;;;;;;;;;;17.31;100;101468.3;;;;-81
2023/09/17 07:57:21;;;;;;;;;;;;;;;17.09;100;101468.6;;;;-82
2023/09/17 08:02:40;;;;;;;;;;;;;;;16.87;100;101463.6;;;;-80
2023/09/17 08:06:23;;;;;;;23;16.3;;;;;;;;;;;;;-80
2023/09/17 08:07:23;;;;;;;;;;;;;;;16.74;100;101462.6;;;;-80
2023/09/17 08:12:27;;;;;;;;;;;;;;;16.59;100;101463.6;;;;-80
2023/09/17 08:17:27;;;;;;;;;;;;;;;16.51;100;101465.3;;;;-81
2023/09/17 08:22:21;;;;;;;;;;;;;;;16.55;100;101464.8;;;;-80
2023/09/17 08:27:25;;;;;;;;;;;;;;;16.55;100;101460.4;;;;-79
2023/09/17 08:32:20;;;;;;;;;;;;;;;16.58;100;101463.7;;;;-80
2023/09/17 08:36:12;;;;;;;20.9;13.3;;;;;;;;;;;;;-81
2023/09/17 08:37:38;;;;;;;;;;;;;;;16.54;100;101469.1;;;;-81
2023/09/17 08:42:28;;;;;;;;;;;;;;;16.46;100;101462.8;;;;-79
2023/09/17 08:47:23;;;;;;;;;;;;;;;16.45;100;101459.2;;;;-80
2023/09/17 08:52:23;;;;;;;;;;;;;;;16.51;100;101453.8;;;;-77
2023/09/17 08:57:26;;;;;;;;;;;;;;;16.58;100;101452.9;;;;-79
2023/09/17 09:06:22;;;;;;;20.2;14.2;;;;;;;;;;;;;-78
2023/09/17 09:07:21;;;;;;;;;;;;;;;16.61;100;101462.8;;;;-80
2023/09/17 09:12:22;;;;;;;;;;;;;;;16.55;100;101471;;;;-80
2023/09/17 09:17:20;;;;;;;;;;;;;;;16.59;100;101466.1;;;;-81
2023/09/17 09:22:20;;;;;;;;;;;;;;;16.8;100;101466.6;;;;-79
2023/09/17 09:27:20;;;;;;;;;;;;;;;17.08;100;101464.3;;;;-79
2023/09/17 09:32:30;;;;;;;;;;;;;;;17.24;100;101458.4;;;;-80
2023/09/17 09:36:16;;;;;;;16;10.9;;;;;;;;;;;;;-82
2023/09/17 09:42:28;;;;;;;;;;;;;;;17.29;100;101451.8;;;;-79
2023/09/17 09:47:20;;;;;;;;;;;;;;;17.27;100;101429.8;;;;-82
2023/09/17 09:52:27;;;;;;;;;;;;;;;17.47;100;101451.7;;;;-80
2023/09/17 09:57:24;;;;;;;;;;;;;;;17.66;100;101445.2;;;;-78
2023/09/17 10:02:25;;;;;;;;;;;;;;;17.81;100;101443.7;;;;-79
2023/09/17 10:07:24;;;;;;;;;;;;;;;17.85;100;101421.9;;;;-81
2023/09/17 10:12:21;;;;;;;;;;;;;;;18.15;100;101413.8;;;;-80
2023/09/17 10:17:24;;;;;;;;;;;;;;;18.5;100;101402.8;;;;-79
2023/09/17 10:22:31;;;;;;;;;;;;;;;18.76;96.78809;101409.8;;;;-80
2023/09/17 10:27:36;;;;;;;;;;;;;;;18.71;94.82617;101404.5;;;;-79
2023/09/17 10:32:22;;;;;;;;;;;;;;;18.77;94.15527;101400.2;;;;-79
2023/09/17 10:36:21;;;;;;;12.8;9.5;;;;;;;;;;;;;-80
2023/09/17 10:37:23;;;;;;;;;;;;;;;18.82;92.41406;101389.4;;;;-80
2023/09/17 10:42:38;;;;;;;;;;;;;;;19.23;94.51172;101375.2;;;;-79
2023/09/17 10:47:21;;;;;;;;;;;;;;;19.74;90.53223;101360;;;;-80
2023/09/17 10:52:32;;;;;;;;;;;;;;;20.28;89.24219;101352.1;;;;-79
2023/09/17 10:57:36;;;;;;;;;;;;;;;20.85;82.67188;101340.8;;;;-79
2023/09/17 11:02:24;;;;;;;;;;;;;;;21.21;78.22656;101338.9;;;;-81
2023/09/17 11:06:27;;;;;;;12.3;8.5;;;;;;;;;;;;;-82
2023/09/17 11:12:23;;;;;;;;;;;;;;;21.08;79.55273;101340.7;;;;-79
2023/09/17 11:17:34;;;;;;;;;;;;;;;20.94;79.53906;101349.3;;;;-79
2023/09/17 11:22:23;;;;;;;;;;;;;;;20.88;79.16699;101358.2;;;;-80
2023/09/17 11:27:22;;;;;;;;;;;;;;;20.86;80.20605;101362.2;;;;-77
2023/09/17 11:32:24;;;;;;;;;;;;;;;20.96;79.70117;101363.5;;;;-79
2023/09/17 11:36:27;;;;;;;12.7;8.2;;;;;;;;;;;;;-79
2023/09/17 11:37:25;;;;;;;;;;;;;;;20.88;77.56836;101357.5;;;;-80
2023/09/17 11:42:20;;;;;;;;;;;;;;;20.67;78.31445;101351.7;;;;-79
2023/09/17 11:47:21;;;;;;;;;;;;;;;20.48;78.76758;101345.2;;;;-79
2023/09/17 11:52:22;;;;;;;;;;;;;;;20.63;79.15625;101336.7;;;;-78
2023/09/17 11:57:24;;;;;;;;;;;;;;;20.67;79.07324;101347.4;;;;-78
2023/09/17 12:25:20;;;;;;;;;;;;;;;20.5;75.08887;101333.2;;;;-83
2023/09/17 12:30:26;;;;;;;;;;;;;;;20.68;74.93652;101330.7;;;;-85
2023/09/17 12:35:30;;;;;;;;;;;;;;;20.72;74.47852;101337.5;;;;-85
2023/09/17 12:36:43;;;;;;;12.2;9.3;;;;;;;;;;;;;-87
2023/09/17 12:40:22;;;;;;;;;;;;;;;20.72;74.74023;101327.4;;;;-85
2023/09/17 12:45:20;;;;;;;;;;;;;;;20.64;76.06445;101337.4;;;;-83
2023/09/17 12:50:18;;;;;;;;;;;;;;;20.65;77.49512;101336.8;;;;-85
2023/09/17 12:55:19;;;;;;;;;;;;;;;20.62;78.75781;101328.2;;;;-86
2023/09/17 13:00:17;;;;;;;;;;;;;;;20.51;79.75781;101320.2;;;;-85
2023/09/17 13:05:26;;;;;;;;;;;;;;;20.44;80.93262;101310.7;;;;-83
2023/09/17 13:10:26;;;;;;;;;;;;;;;20.31;82.5625;101304.9;;;;-84
2023/09/17 13:15:16;;;;;;;;;;;;;;;20.43;82.60547;101307.8;;;;-84
2023/09/17 13:20:20;;;;;;;;;;;;;;;20.33;83.07324;101303.3;;;;-84
2023/09/17 13:25:19;;;;;;;;;;;;;;;20.52;82.37305;101304.8;;;;-84
2023/09/17 13:30:21;;;;;;;;;;;;;;;20.4;83.10938;101301.6;;;;-82
2023/09/17 13:35:17;;;;;;;;;;;;;;;20.21;84.10254;101305.4;;;;-84
2023/09/17 13:36:43;;;;;;;32.7;20;;;;;;;;;;;;;-84
2023/09/17 13:40:16;;;;;;;;;;;;;;;19.91;86.21289;101299.2;;;;-84
2023/09/17 13:45:17;;;;;;;;;;;;;;;19.94;86.26367;101287.3;;;;-84
2023/09/17 13:50:21;;;;;;;;;;;;;;;19.89;86.66113;101288.5;;;;-83
2023/09/17 13:55:19;;;;;;;;;;;;;;;19.89;86.68164;101298.6;;;;-85
2023/09/17 14:00:20;;;;;;;;;;;;;;;19.71;87.86621;101283;;;;-84
2023/09/17 14:05:23;;;;;;;;;;;;;;;19.74;88.2207;101284.6;;;;-84
2023/09/17 14:06:44;;;;;;;37.6;21.3;;;;;;;;;;;;;-85
2023/09/17 14:10:22;;;;;;;;;;;;;;;19.71;88.94629;101273.9;;;;-84
2023/09/17 14:15:29;;;;;;;;;;;;;;;20.05;87.28906;101272.8;;;;-84
2023/09/17 14:20:21;;;;;;;;;;;;;;;20.04;87.14063;101269;;;;-85
2023/09/17 14:25:24;;;;;;;;;;;;;;;20.02;86.49512;101267.2;;;;-84
2023/09/17 14:30:21;;;;;;;;;;;;;;;19.92;87.45703;101267.9;;;;-85
2023/09/17 14:35:18;;;;;;;;;;;;;;;20.09;87.32031;101267;;;;-85
2023/09/17 14:36:46;;;;;;;31;19;;;;;;;;;;;;;-84
2023/09/17 14:40:19;;;;;;;;;;;;;;;20.22;86.47559;101266.1;;;;-83
2023/09/17 14:45:18;;;;;;;;;;;;;;;20.17;86.47852;101251.1;;;;-83
2023/09/17 14:50:20;;;;;;;;;;;;;;;20.21;86.45117;101246.3;;;;-86
2023/09/17 14:55:16;;;;;;;;;;;;;;;19.99;87.59277;101242.1;;;;-83
2023/09/17 15:00:18;;;;;;;;;;;;;;;20.01;87.6875;101239.8;;;;-86
2023/09/17 15:05:19;;;;;;;;;;;;;;;19.92;87.91797;101236.6;;;;-85
2023/09/17 15:06:50;;;;;;;35.5;20.6;;;;;;;;;;;;;-83
2023/09/17 15:10:23;;;;;;;;;;;;;;;19.85;88.59375;101236.9;;;;-85
2023/09/17 15:15:21;;;;;;;;;;;;;;;19.91;88.68164;101234.7;;;;-83
2023/09/17 15:20:20;;;;;;;;;;;;;;;19.76;89.73633;101228.8;;;;-84
2023/09/17 15:25:25;;;;;;;;;;;;;;;19.58;90.89355;101224.2;;;;-84
2023/09/17 15:30:21;;;;;;;;;;;;;;;19.58;91.42285;101226.2;;;;-84
2023/09/17 15:35:16;;;;;;;;;;;;;;;19.65;91.76172;101219.5;;;;-85
2023/09/17 15:36:55;;;;;;;38.5;22.6;;;;;;;;;;;;;-85
2023/09/17 15:40:21;;;;;;;;;;;;;;;19.6;91.95508;101210.7;;;;-85
2023/09/17 15:45:16;;;;;;;;;;;;;;;19.79;91.64551;101207.9;;;;-84
2023/09/17 15:50:19;;;;;;;;;;;;;;;19.67;90.69824;101207.5;;;;-84
2023/09/17 15:55:20;;;;;;;;;;;;;;;19.59;91.68359;101209.5;;;;-85
2023/09/17 16:00:19;;;;;;;;;;;;;;;19.64;92.37012;101206.4;;;;-83
2023/09/17 16:05:18;;;;;;;;;;;;;;;19.54;92.0791;101218.5;;;;-84
2023/09/17 16:07:08;;;;;;;34.7;18.8;;;;;;;;;;;;;-84
2023/09/17 16:10:24;;;;;;;;;;;;;;;19.44;92.68652;101230.5;;;;-84
2023/09/17 16:15:20;;;;;;;;;;;;;;;19.45;93.70313;101227.7;;;;-85
2023/09/17 16:20:24;;;;;;;;;;;;;;;19.38;94.03613;101229.5;;;;-84
2023/09/17 16:25:20;;;;;;;;;;;;;;;19.31;94.84082;101234.2;;;;-84
2023/09/17 16:30:19;;;;;;;;;;;;;;;19.19;95.9375;101229;;;;-85
2023/09/17 16:35:17;;;;;;;;;;;;;;;19.12;96.32813;101229.1;;;;-85
2023/09/17 16:37:01;;;;;;;40.5;21.5;;;;;;;;;;;;;-83
2023/09/17 16:40:18;;;;;;;;;;;;;;;19.06;96.55078;101230.5;;;;-84
2023/09/17 16:45:17;;;;;;;;;;;;;;;19.04;96.68359;101214.5;;;;-84
2023/09/17 16:50:17;;;;;;;;;;;;;;;18.96;97.98926;101218.6;;;;-82
2023/09/17 16:55:25;;;;;;;;;;;;;;;18.86;98.47266;101212.7;;;;-85
2023/09/17 17:00:30;;;;;;;;;;;;;;;18.82;99.08105;101212.1;;;;-83
2023/09/17 17:05:25;;;;;;;;;;;;;;;18.83;99.33887;101193.9;;;;-85
2023/09/17 17:07:05;;;;;;;40.5;21.9;;;;;;;;;;;;;-82
2023/09/17 17:10:29;;;;;;;;;;;;;;;18.86;98.95215;101185;;;;-83
2023/09/17 17:15:24;;;;;;;;;;;;;;;18.78;99.92285;101181.3;;;;-82
2023/09/17 17:20:22;;;;;;;;;;;;;;;18.81;99.76074;101168.9;;;;-84
2023/09/17 17:25:24;;;;;;;;;;;;;;;18.73;100;101143.2;;;;-84
2023/09/17 17:35:31;;;;;;;;;;;;;;;18.79;100;101161.3;;;;-84
2023/09/17 17:37:24;;;;;;;48.8;24.6;;;;;;;;;;;;;-84
2023/09/17 17:43:25;;;;;;;;;;;;;;;18.72;100;101161.9;;;;-84
2023/09/17 17:48:36;;;;;;;;;;;;;;;18.8;100;101158.6;;;;-83
2023/09/17 17:53:35;;;;;;;;;;;;;;;18.78;100;101189;;;;-84
2023/09/17 17:58:30;;;;;;;;;;;;;;;18.66;100;101177.2;;;;-84
2023/09/17 18:03:33;;;;;;;;;;;;;;;18.56;100;101164.9;;;;-83
2023/09/17 18:07:13;;;;;;;49.2;25.2;;;;;;;;;;;;;-83
2023/09/17 18:08:22;;;;;;;;;;;;;;;18.5;100;101159.6;;;;-83
2023/09/17 18:13:33;;;;;;;;;;;;;;;18.49;100;101165.8;;;;-82
2023/09/17 18:18:20;;;;;;;;;;;;;;;18.43;100;101159;;;;-83
2023/09/17 18:23:19;;;;;;;;;;;;;;;18.36;100;101160.6;;;;-83
2023/09/17 18:28:30;;;;;;;;;;;;;;;18.31;100;101133;;;;-83
2023/09/17 18:33:37;;;;;;;;;;;;;;;18.25;100;101125.1;;;;-83
2023/09/17 18:37:19;;;;;;;41.8;22.8;;;;;;;;;;;;;-83
2023/09/17 18:38:19;;;;;;;;;;;;;;;18.18;100;101145.1;;;;-85
2023/09/17 18:48:18;;;;;;;;;;;;;;;17.99;100;101121.3;;;;-83
2023/09/17 18:53:19;;;;;;;;;;;;;;;17.93;100;101133.1;;;;-82
2023/09/17 18:58:19;;;;;;;;;;;;;;;17.82;100;101154.6;;;;-82
2023/09/17 19:03:23;;;;;;;;;;;;;;;17.74;100;101107.2;;;;-81
2023/09/17 19:07:12;;;;;;;46.5;24.4;;;;;;;;;;;;;-82
2023/09/17 19:08:21;;;;;;;;;;;;;;;17.68;100;101092;;;;-82
2023/09/17 19:13:21;;;;;;;;;;;;;;;17.62;100;101090.6;;;;-82
2023/09/17 19:18:19;;;;;;;;;;;;;;;17.57;100;101082.6;;;;-82
2023/09/17 19:23:18;;;;;;;;;;;;;;;17.51;100;101068.4;;;;-82
2023/09/17 19:28:21;;;;;;;;;;;;;;;17.42;100;101056.2;;;;-81
2023/09/17 19:33:21;;;;;;;;;;;;;;;17.42;100;101065.2;;;;-81
2023/09/17 19:37:17;;;;;;;58.5;28.4;;;;;;;;;;;;;-82
2023/09/17 19:38:21;;;;;;;;;;;;;;;17.37;100;101058.8;;;;-79
2023/09/17 19:43:20;;;;;;;;;;;;;;;17.33;100;101060.6;;;;-82
2023/09/17 19:48:26;;;;;;;;;;;;;;;17.31;100;101055.9;;;;-82
2023/09/17 19:53:34;;;;;;;;;;;;;;;17.28;100;101056.5;;;;-83
2023/09/17 19:58:27;;;;;;;;;;;;;;;17.25;100;101062.2;;;;-81
2023/09/17 20:03:21;;;;;;;;;;;;;;;17.21;100;101074.8;;;;-83
2023/09/17 20:07:19;;;;;;;60.1;28.2;;;;;;;;;;;;;-85
2023/09/17 20:08:22;;;;;;;;;;;;;;;17.16;100;101083.7;;;;-83
2023/09/17 20:13:19;;;;;;;;;;;;;;;17.12;100;101072.8;;;;-84
2023/09/17 20:18:18;;;;;;;;;;;;;;;17.13;100;101071.6;;;;-84
2023/09/17 20:23:19;;;;;;;;;;;;;;;17.08;100;101054;;;;-84
2023/09/17 20:28:20;;;;;;;;;;;;;;;16.96;100;101036.2;;;;-84
2023/09/17 20:33:20;;;;;;;;;;;;;;;17.11;100;101044.3;;;;-85
2023/09/17 20:37:20;;;;;;;59.8;26.8;;;;;;;;;;;;;-85
2023/09/17 20:38:18;;;;;;;;;;;;;;;17.06;100;101032.1;;;;-85
2023/09/17 20:43:23;;;;;;;;;;;;;;;17.05;100;101030;;;;-84
2023/09/17 20:48:19;;;;;;;;;;;;;;;17.03;100;101047.3;;;;-83
2023/09/17 20:53:18;;;;;;;;;;;;;;;16.99;100;101052;;;;-83
2023/09/17 20:58:19;;;;;;;;;;;;;;;16.99;100;101058.8;;;;-85
2023/09/17 21:03:19;;;;;;;;;;;;;;;17.01;100;101053.8;;;;-85
2023/09/17 21:07:23;;;;;;;53.8;26.7;;;;;;;;;;;;;-84
2023/09/17 21:08:19;;;;;;;;;;;;;;;17.03;100;101041.1;;;;-84
2023/09/17 21:13:28;;;;;;;;;;;;;;;17.04;100;101051.5;;;;-83
2023/09/17 21:18:20;;;;;;;;;;;;;;;17.03;100;101043;;;;-83
2023/09/17 21:23:21;;;;;;;;;;;;;;;17.01;100;101036.8;;;;-84
2023/09/17 21:28:19;;;;;;;;;;;;;;;17.13;100;101022.3;;;;-83
2023/09/17 21:33:18;;;;;;;;;;;;;;;17.19;100;101008.3;;;;-84
2023/09/17 21:37:23;;;;;;;84.2;34.1;;;;;;;;;;;;;-84
2023/09/17 21:38:22;;;;;;;;;;;;;;;17.22;100;100999.4;;;;-84
2023/09/17 21:43:20;;;;;;;;;;;;;;;17.21;100;100988.7;;;;-84
2023/09/17 21:48:24;;;;;;;;;;;;;;;17.23;100;100994.2;;;;-83
2023/09/17 21:53:21;;;;;;;;;;;;;;;17.27;100;100974.5;;;;-83
2023/09/17 21:58:19;;;;;;;;;;;;;;;17.34;100;100955.7;;;;-84
2023/09/17 22:03:18;;;;;;;;;;;;;;;17.38;100;100939.4;;;;-83
2023/09/17 22:07:26;;;;;;;92.3;36.3;;;;;;;;;;;;;-84
2023/09/17 22:08:21;;;;;;;;;;;;;;;17.37;100;100930.4;;;;-84
2023/09/17 22:13:20;;;;;;;;;;;;;;;17.37;100;100924.7;;;;-83
2023/09/17 22:18:18;;;;;;;;;;;;;;;17.39;100;100919.7;;;;-85
2023/09/17 22:23:18;;;;;;;;;;;;;;;17.38;100;100912.5;;;;-83
2023/09/17 22:28:19;;;;;;;;;;;;;;;17.39;100;100902.2;;;;-83
2023/09/17 22:33:19;;;;;;;;;;;;;;;17.4;100;100897.1;;;;-84
2023/09/17 22:37:28;;;;;;;99.3;37.8;;;;;;;;;;;;;-82
2023/09/17 22:38:18;;;;;;;;;;;;;;;17.42;100;100885.9;;;;-83
2023/09/17 22:43:20;;;;;;;;;;;;;;;17.44;100;100886.6;;;;-85
2023/09/17 22:48:18;;;;;;;;;;;;;;;17.48;100;100904.5;;;;-84
2023/09/17 22:53:19;;;;;;;;;;;;;;;17.51;100;100891.2;;;;-83
2023/09/17 22:58:20;;;;;;;;;;;;;;;17.53;100;100881.2;;;;-84
2023/09/17 23:03:19;;;;;;;;;;;;;;;17.56;100;100871.1;;;;-83
2023/09/17 23:07:32;;;;;;;78.1;33.2;;;;;;;;;;;;;-83
2023/09/17 23:08:18;;;;;;;;;;;;;;;17.6;100;100859;;;;-83
2023/09/17 23:13:18;;;;;;;;;;;;;;;17.61;100;100837.3;;;;-85
2023/09/17 23:18:19;;;;;;;;;;;;;;;17.64;100;100820;;;;-85
2023/09/17 23:23:19;;;;;;;;;;;;;;;17.68;100;100808.5;;;;-83
2023/09/17 23:28:18;;;;;;;;;;;;;;;17.73;100;100803.1;;;;-86
2023/09/17 23:33:21;;;;;;;;;;;;;;;17.79;100;100788.9;;;;-83
2023/09/17 23:37:33;;;;;;;76.5;34.2;;;;;;;;;;;;;-84
2023/09/17 23:38:20;;;;;;;;;;;;;;;17.85;100;100770.2;;;;-85
2023/09/17 23:43:18;;;;;;;;;;;;;;;17.89;100;100750;;;;-83
2023/09/17 23:48:19;;;;;;;;;;;;;;;17.95;100;100735.9;;;;-85
2023/09/17 23:53:19;;;;;;;;;;;;;;;17.99;100;100717.5;;;;-83
2023/09/17 23:58:19;;;;;;;;;;;;;;;17.98;100;100703.1;;;;-83
